Time;durP1;ratioP1;P1;durP2;ratioP2;P2;SDS_P1;SDS_P2;PMS_P1;PMS_P2;Temp;Humidity;BMP_temperature;BMP_pressure;BME280_temperature;BME280_humidity;BME280_pressure;Samples;Min_cycle;Max_cycle;Signal;HPM_P1;HPM_P2
2022/04/14 00:00:34;;;;;;;2.50;2.30;;;;;;;8.01;65.04;97848.59;6148020;28;20233;-81
2022/04/14 00:03:36;;;;;;;3.17;2.43;;;;;;;7.93;66.45;97848.25;6158043;28;20723;-82
2022/04/14 00:06:39;;;;;;;3.13;2.80;;;;;;;7.81;66.96;97845.59;6166067;28;20227;-82
2022/04/14 00:09:41;;;;;;;2.90;2.30;;;;;;;7.68;67.91;97848.22;6183648;28;20607;-82
2022/04/14 00:12:45;;;;;;;5.73;2.40;;;;;;;7.66;67.64;97842.22;6181964;28;20225;-82
2022/04/14 00:15:48;;;;;;;3.37;2.40;;;;;;;7.82;66.09;97840.25;6183747;28;20235;-81
2022/04/14 00:18:50;;;;;;;3.33;2.60;;;;;;;7.82;66.10;97842.03;6158268;28;20245;-82
2022/04/14 00:21:52;;;;;;;4.33;2.60;;;;;;;7.77;66.80;97837.94;6181972;28;20238;-82
2022/04/14 00:24:54;;;;;;;5.67;2.70;;;;;;;7.74;66.52;97832.06;6182241;28;20236;-82
2022/04/14 00:27:56;;;;;;;3.87;2.53;;;;;;;7.74;66.19;97835.50;6183201;28;20241;-82
2022/04/14 00:30:59;;;;;;;4.67;2.20;;;;;;;7.72;66.36;97833.94;6181645;28;20236;-81
2022/04/14 00:34:02;;;;;;;3.67;2.50;;;;;;;7.71;66.70;97835.72;6165619;28;20249;-82
2022/04/14 00:37:04;;;;;;;3.20;2.33;;;;;;;7.66;66.32;97823.84;6198784;28;20238;-82
2022/04/14 00:40:07;;;;;;;3.50;2.40;;;;;;;7.71;65.92;97833.09;6182917;28;20371;-82
2022/04/14 00:43:09;;;;;;;3.83;2.10;;;;;;;7.87;65.39;97832.94;6165792;28;20241;-81
2022/04/14 00:46:12;;;;;;;4.90;2.53;;;;;;;8.10;64.12;97821.69;6183737;28;20247;-82
2022/04/14 00:49:14;;;;;;;3.67;2.43;;;;;;;8.19;63.26;97827.25;6184330;28;20239;-82
2022/04/14 00:52:16;;;;;;;4.23;2.67;;;;;;;8.19;63.67;97822.00;6186463;28;20241;-81
2022/04/14 00:55:18;;;;;;;2.60;2.33;;;;;;;8.28;62.80;97824.03;6159216;28;20247;-82
2022/04/14 00:58:20;;;;;;;3.00;2.10;;;;;;;8.29;63.10;97829.16;6169067;28;20696;-82
2022/04/14 01:01:23;;;;;;;2.87;2.27;;;;;;;8.38;62.27;97818.06;6185385;28;20611;-82
2022/04/14 01:04:26;;;;;;;3.00;2.30;;;;;;;8.33;62.74;97812.25;6157554;28;20239;-82
2022/04/14 01:07:29;;;;;;;4.37;2.30;;;;;;;8.37;62.36;97826.03;6168551;28;20243;-82
2022/04/14 01:10:32;;;;;;;3.60;2.40;;;;;;;8.28;62.86;97822.22;6160633;28;20241;-82
2022/04/14 01:13:34;;;;;;;3.00;2.20;;;;;;;8.18;62.80;97822.97;6173092;28;20754;-82
2022/04/14 01:16:36;;;;;;;3.50;2.50;;;;;;;8.06;63.66;97827.28;6180158;28;20236;-82
2022/04/14 01:19:39;;;;;;;4.73;2.30;;;;;;;7.99;64.22;97821.56;6182350;28;20236;-81
2022/04/14 01:23:03;;;;;;;3.63;2.23;;;;;;;7.94;64.03;97822.84;6183054;28;20244;-82
2022/04/14 01:26:07;;;;;;;3.63;2.30;;;;;;;7.94;64.19;97828.09;6179832;28;20709;-82
2022/04/14 01:29:23;;;;;;;3.33;2.30;;;;;;;7.90;64.33;97826.59;6180651;28;20238;-81
2022/04/14 01:32:25;;;;;;;4.47;2.60;;;;;;;7.90;64.09;97827.44;6179732;28;20229;-81
2022/04/14 01:35:27;;;;;;;2.37;2.17;;;;;;;7.87;64.53;97822.41;6184686;28;20227;-82
2022/04/14 01:38:29;;;;;;;3.43;2.67;;;;;;;7.82;64.41;97818.41;6164223;28;20232;-82
2022/04/14 01:41:32;;;;;;;2.73;2.20;;;;;;;7.72;64.68;97824.25;6180083;28;20247;-81
2022/04/14 01:44:34;;;;;;;2.97;2.33;;;;;;;7.65;65.82;97824.78;6180263;28;20244;-81
2022/04/14 01:47:44;;;;;;;3.27;2.23;;;;;;;7.81;63.56;97827.22;6179611;28;20275;-82
2022/04/14 01:50:46;;;;;;;5.57;3.03;;;;;;;8.07;61.48;97834.22;6164274;28;20233;-81
2022/04/14 01:53:48;;;;;;;3.77;2.77;;;;;;;7.98;62.53;97830.41;6164054;28;20237;-82
2022/04/14 01:56:50;;;;;;;3.03;2.63;;;;;;;7.88;63.03;97825.88;6179495;28;20224;-82
2022/04/14 01:59:53;;;;;;;4.57;2.53;;;;;;;7.88;63.44;97826.72;6179932;28;20255;-82
2022/04/14 02:02:55;;;;;;;4.83;2.63;;;;;;;7.86;63.68;97825.97;6180433;28;20718;-82
2022/04/14 02:05:59;;;;;;;4.93;3.07;;;;;;;7.86;61.71;97825.97;6185023;28;20228;-82
2022/04/14 02:09:02;;;;;;;4.10;2.40;;;;;;;7.87;62.79;97826.81;6184711;28;20223;-82
2022/04/14 02:12:05;;;;;;;4.80;2.20;;;;;;;7.87;62.94;97818.94;6183077;28;20209;-82
2022/04/14 02:15:07;;;;;;;4.30;2.57;;;;;;;7.80;62.92;97815.88;6181973;28;20209;-82
2022/04/14 02:18:09;;;;;;;4.07;2.57;;;;;;;7.97;61.62;97812.97;6180130;28;20224;-82
2022/04/14 02:21:11;;;;;;;3.73;2.60;;;;;;;7.93;61.97;97818.53;6162718;28;20235;-82
2022/04/14 02:24:13;;;;;;;4.13;2.60;;;;;;;7.77;62.48;97811.69;6178545;28;20209;-82
2022/04/14 02:27:16;;;;;;;3.57;2.90;;;;;;;7.82;60.48;97811.34;6179733;28;20240;-82
2022/04/14 02:30:18;;;;;;;4.80;2.47;;;;;;;7.84;61.44;97814.72;6179404;28;20201;-82
2022/04/14 02:33:20;;;;;;;3.93;2.40;;;;;;;7.67;62.53;97812.41;6162711;28;20216;-82
2022/04/14 02:36:23;;;;;;;3.20;2.63;;;;;;;7.53;63.32;97805.41;6190127;28;20246;-82
2022/04/14 02:39:25;;;;;;;2.57;2.00;;;;;;;7.46;63.56;97808.56;6177510;28;20228;-82
2022/04/14 02:42:28;;;;;;;2.73;2.20;;;;;;;7.39;63.91;97806.31;6180931;28;20293;-82
2022/04/14 02:45:30;;;;;;;3.97;2.53;;;;;;;7.40;63.77;97796.66;6191617;28;20226;-81
2022/04/14 02:48:32;;;;;;;4.00;2.77;;;;;;;7.34;64.30;97800.53;6178130;28;20360;-81
2022/04/14 02:51:35;;;;;;;3.10;2.53;;;;;;;7.24;64.29;97804.69;6179054;28;20709;-82
2022/04/14 02:54:39;;;;;;;7.00;2.60;;;;;;;7.26;64.37;97799.34;6180567;28;20606;-81
2022/04/14 02:57:42;;;;;;;5.50;2.57;;;;;;;7.32;63.90;97796.31;6162848;28;20232;-82
2022/04/14 03:00:44;;;;;;;2.63;2.43;;;;;;;7.49;62.45;97797.81;6162279;28;20236;-81
2022/04/14 03:03:46;;;;;;;2.90;2.40;;;;;;;7.45;62.90;97788.50;6178464;28;20614;-82
2022/04/14 03:06:48;;;;;;;3.27;2.50;;;;;;;7.51;60.93;97788.06;6181002;28;20224;-81
2022/04/14 03:09:51;;;;;;;2.80;2.20;;;;;;;7.52;62.14;97782.72;6162212;28;20654;-81
2022/04/14 03:12:53;;;;;;;3.37;2.50;;;;;;;7.52;61.72;97780.09;6177516;28;20236;-82
2022/04/14 03:15:55;;;;;;;5.23;2.90;;;;;;;7.47;62.37;97776.09;6177868;28;20598;-82
2022/04/14 03:18:57;;;;;;;2.97;2.67;;;;;;;7.45;62.32;97780.59;6180655;28;20244;-82
2022/04/14 03:21:59;;;;;;;2.77;2.10;;;;;;;7.39;62.20;97774.81;6179121;28;20793;-81
2022/04/14 03:25:04;;;;;;;4.00;2.40;;;;;;;7.37;62.32;97775.88;6179275;28;20246;-82
2022/04/14 03:28:06;;;;;;;3.57;2.67;;;;;;;7.49;60.93;97776.81;6179739;28;20610;-82
2022/04/14 03:31:10;;;;;;;3.63;2.77;;;;;;;7.63;59.80;97774.97;6161519;28;20240;-81
2022/04/14 03:34:12;;;;;;;5.50;2.47;;;;;;;7.65;60.21;97785.38;6161147;28;20244;-81
2022/04/14 03:37:15;;;;;;;4.47;2.80;;;;;;;7.61;60.47;97781.25;6185519;28;20233;-82
2022/04/14 03:40:17;;;;;;;4.10;2.60;;;;;;;7.59;60.33;97775.25;6162204;28;20607;-82
2022/04/14 03:43:19;;;;;;;4.93;2.50;;;;;;;7.61;59.28;97778.63;6178311;28;20614;-81
2022/04/14 03:46:21;;;;;;;4.80;2.77;;;;;;;7.57;59.67;97777.19;6179115;28;20236;-82
2022/04/14 03:49:23;;;;;;;3.23;2.63;;;;;;;7.43;60.60;97778.09;6156305;28;20236;-82
2022/04/14 03:52:41;;;;;;;6.13;2.43;;;;;;;7.31;61.11;97789.38;6162031;28;20233;-82
2022/04/14 03:55:43;;;;;;;3.23;2.40;;;;;;;7.19;62.06;97783.13;6169788;28;20733;-82
2022/04/14 03:58:45;;;;;;;2.63;2.30;;;;;;;7.06;62.86;97786.69;6165023;28;20322;-82
2022/04/14 04:01:47;;;;;;;3.73;2.10;;;;;;;6.93;63.35;97786.63;6169324;28;20246;-82
2022/04/14 04:04:50;;;;;;;5.03;2.50;;;;;;;6.80;64.09;97791.78;6167655;28;20229;-82
2022/04/14 04:07:52;;;;;;;3.83;2.63;;;;;;;6.76;64.51;97787.69;6177004;28;20321;-82
2022/04/14 04:10:54;;;;;;;3.33;2.20;;;;;;;6.68;64.93;97794.38;6179563;28;20219;-81
2022/04/14 04:13:56;;;;;;;3.03;2.47;;;;;;;6.54;65.56;97789.97;6161896;28;20241;-82
2022/04/14 04:16:58;;;;;;;4.30;2.57;;;;;;;6.43;65.65;97797.66;6178365;28;20240;-82
2022/04/14 04:20:01;;;;;;;2.70;2.13;;;;;;;6.37;65.67;97800.66;6153573;28;20232;-82
2022/04/14 04:23:04;;;;;;;3.23;2.53;;;;;;;6.28;65.97;97799.47;6159139;28;20237;-81
2022/04/14 04:26:06;;;;;;;3.93;2.70;;;;;;;6.18;66.25;97798.34;6181661;28;20863;-82
2022/04/14 04:29:08;;;;;;;2.97;2.43;;;;;;;6.09;67.02;97809.38;6182313;28;20235;-82
2022/04/14 04:32:11;;;;;;;5.17;2.70;;;;;;;6.03;66.88;97810.56;6159815;28;20240;-82
2022/04/14 04:35:13;;;;;;;3.17;2.50;;;;;;;6.00;67.84;97812.50;6161493;28;20227;-82
2022/04/14 04:38:15;;;;;;;3.80;2.70;;;;;;;5.90;68.06;97814.84;6184630;28;20702;-81
2022/04/14 04:41:17;;;;;;;4.23;2.27;;;;;;;5.85;68.08;97812.47;6181292;28;20248;-81
2022/04/14 04:44:19;;;;;;;4.57;2.63;;;;;;;5.83;68.09;97822.19;6156287;28;20235;-81
2022/04/14 04:47:21;;;;;;;3.37;2.50;;;;;;;5.82;68.19;97822.28;6179605;28;20752;-81
2022/04/14 04:50:24;;;;;;;2.83;2.27;;;;;;;5.82;67.44;97827.53;6182517;28;20239;-82
2022/04/14 04:53:26;;;;;;;3.73;2.37;;;;;;;5.86;67.92;97829.03;6167541;28;20247;-82
2022/04/14 04:56:28;;;;;;;6.33;2.60;;;;;;;5.81;68.03;97828.44;6185459;28;20226;-82
2022/04/14 04:59:31;;;;;;;3.43;2.50;;;;;;;5.76;68.42;97831.34;6180851;28;20230;-82
2022/04/14 05:02:33;;;;;;;4.33;2.47;;;;;;;5.77;68.28;97825.19;6183210;28;20241;-82
2022/04/14 05:05:36;;;;;;;2.70;2.20;;;;;;;5.81;68.26;97828.44;6165902;28;20220;-81
2022/04/14 05:08:38;;;;;;;3.00;2.50;;;;;;;5.79;68.65;97825.09;6182112;28;20239;-81
2022/04/14 05:11:43;;;;;;;4.23;2.30;;;;;;;5.74;69.13;97824.50;6168599;28;20242;-81
2022/04/14 05:14:45;;;;;;;2.60;2.30;;;;;;;5.74;69.24;97817.50;6183632;28;20226;-82
2022/04/14 05:17:47;;;;;;;4.87;2.67;;;;;;;5.75;70.38;97816.56;6182099;28;20741;-82
2022/04/14 05:20:50;;;;;;;5.33;3.07;;;;;;;5.77;69.99;97816.50;6165930;28;20349;-81
2022/04/14 05:23:52;;;;;;;5.17;2.80;;;;;;;5.83;69.63;97813.50;6182065;28;20235;-81
2022/04/14 05:26:54;;;;;;;3.10;2.17;;;;;;;5.88;69.88;97822.81;6180505;28;20229;-82
2022/04/14 05:29:57;;;;;;;4.87;2.80;;;;;;;5.93;69.93;97812.06;6164581;28;20236;-82
2022/04/14 05:32:59;;;;;;;3.10;2.80;;;;;;;5.99;69.98;97811.66;6163937;28;20233;-82
2022/04/14 05:36:02;;;;;;;5.83;2.70;;;;;;;6.07;69.83;97811.25;6172346;28;20209;-82
2022/04/14 05:39:04;;;;;;;4.20;2.50;;;;;;;6.13;70.09;97806.47;6174195;28;20223;-82
2022/04/14 05:42:06;;;;;;;3.13;2.60;;;;;;;6.18;69.90;97812.28;6175971;28;20275;-82
2022/04/14 05:45:09;;;;;;;4.47;2.57;;;;;;;6.24;69.71;97806.66;6179145;28;20746;-82
2022/04/14 05:48:14;;;;;;;4.70;2.83;;;;;;;6.31;70.09;97801.88;6164224;28;20241;-82
2022/04/14 05:51:17;;;;;;;3.37;2.93;;;;;;;6.40;70.05;97806.53;6179340;28;20588;-81
2022/04/14 05:54:19;;;;;;;5.70;2.57;;;;;;;6.46;70.52;97800.94;6179787;28;20242;-82
2022/04/14 05:57:22;;;;;;;3.77;2.40;;;;;;;6.54;70.00;97797.84;6179767;28;20642;-82
2022/04/14 06:00:24;;;;;;;3.63;2.33;;;;;;;6.62;70.23;97799.03;6163055;28;20737;-82
2022/04/14 06:03:26;;;;;;;3.97;2.57;;;;;;;6.73;69.94;97800.16;6179337;28;20728;-81
2022/04/14 06:06:28;;;;;;;3.43;2.40;;;;;;;6.83;70.05;97811.75;6178906;28;20607;-81
2022/04/14 06:09:31;;;;;;;3.13;2.20;;;;;;;6.96;69.98;97813.50;6178519;28;20579;-82
2022/04/14 06:12:33;;;;;;;3.53;2.40;;;;;;;7.12;69.61;97802.84;6162927;28;20595;-82
2022/04/14 06:15:35;;;;;;;3.23;2.70;;;;;;;7.23;69.78;97810.03;6163157;28;20255;-82
2022/04/14 06:18:37;;;;;;;3.20;2.23;;;;;;;7.38;69.35;97801.19;6180403;28;20240;-82
2022/04/14 06:21:39;;;;;;;3.63;2.60;;;;;;;7.54;68.25;97803.63;6180109;28;20269;-82
2022/04/14 06:24:41;;;;;;;4.27;2.40;;;;;;;7.68;68.77;97804.41;6179900;28;20244;-82
2022/04/14 06:27:45;;;;;;;4.40;2.17;;;;;;;7.84;68.04;97806.84;6177791;28;20698;-81
2022/04/14 06:30:47;;;;;;;5.90;2.80;;;;;;;8.05;66.46;97805.41;6180088;28;20260;-82
2022/04/14 06:33:49;;;;;;;5.70;2.57;;;;;;;8.20;67.03;97805.28;6178737;28;20273;-82
2022/04/14 06:36:52;;;;;;;4.17;2.13;;;;;;;8.31;66.40;97811.50;6164879;28;20236;-82
2022/04/14 06:39:54;;;;;;;3.43;2.27;;;;;;;8.47;66.66;97812.16;6179119;28;20235;-82
2022/04/14 06:43:16;;;;;;;3.20;2.17;;;;;;;8.61;65.51;97816.44;6178281;28;20236;-81
2022/04/14 06:46:18;;;;;;;2.90;2.23;;;;;;;8.69;64.93;97808.84;6179186;28;20244;-82
2022/04/14 06:49:21;;;;;;;3.30;2.33;;;;;;;8.86;64.91;97812.91;6162178;28;20601;-82
2022/04/14 06:52:23;;;;;;;4.23;2.67;;;;;;;9.00;65.08;97814.53;6157421;28;20240;-82
2022/04/14 07:54:56;;;;;;;5.17;3.13;;;;;;;16.37;39.29;97840.47;5599907;28;20229;-83
2022/04/14 07:58:07;;;;;;;5.33;2.93;;;;;;;16.60;39.34;97843.44;6180975;28;20229;-83
2022/04/14 08:01:10;;;;;;;9.67;3.10;;;;;;;16.86;38.37;97841.66;6182070;28;20332;-83
2022/04/14 08:04:12;;;;;;;4.50;2.90;;;;;;;17.09;37.82;97844.59;6183652;28;20240;-83
2022/04/14 08:07:14;;;;;;;2.83;2.50;;;;;;;17.43;37.16;97844.56;6181882;28;20236;-83
2022/04/14 08:10:19;;;;;;;4.60;2.67;;;;;;;17.80;36.41;97848.69;6181581;28;20271;-83
2022/04/14 08:13:21;;;;;;;4.13;2.50;;;;;;;18.22;36.34;97841.38;6182345;28;20241;-83
2022/04/14 08:16:24;;;;;;;4.53;2.50;;;;;;;18.52;36.17;97847.03;6165991;28;20233;-83
2022/04/14 08:19:26;;;;;;;6.30;2.90;;;;;;;18.85;34.97;97846.03;6174228;28;20585;-83
2022/04/14 08:22:28;;;;;;;5.40;3.20;;;;;;;19.01;35.01;97851.31;6163520;28;20225;-84
2022/04/14 08:25:33;;;;;;;5.07;2.70;;;;;;;19.22;34.62;97849.91;6181167;28;20225;-83
2022/04/14 08:28:40;;;;;;;7.13;2.90;;;;;;;19.36;34.21;97852.69;6184783;28;20245;-83
2022/04/14 08:31:42;;;;;;;4.23;2.60;;;;;;;19.60;34.36;97853.59;6182823;28;20589;-83
2022/04/14 08:34:45;;;;;;;4.60;2.73;;;;;;;19.94;33.92;97863.97;6184874;28;20595;-83
2022/04/14 08:37:49;;;;;;;4.90;2.73;;;;;;;20.05;32.81;97859.03;6188118;28;20237;-83
2022/04/14 08:41:03;;;;;;;5.37;2.87;;;;;;;20.28;32.67;97864.38;6165895;28;21053;-83
2022/04/14 08:44:21;;;;;;;2.63;2.17;;;;;;;20.25;32.90;97854.84;6159212;28;20454;-83
2022/04/14 08:47:27;;;;;;;3.90;3.10;;;;;;;20.63;32.62;97862.94;6161445;28;20245;-83
2022/04/14 08:50:31;;;;;;;6.07;2.80;;;;;;;20.52;31.25;97858.00;6173789;28;20230;-83
2022/04/14 08:53:35;;;;;;;6.70;2.80;;;;;;;20.68;32.89;97865.06;6056488;28;20226;-83
2022/04/14 08:56:38;;;;;;;4.80;2.57;;;;;;;20.82;31.42;97861.56;6151875;28;20227;-83
2022/04/14 08:59:44;;;;;;;4.17;2.30;;;;;;;21.14;32.05;97852.34;6141195;28;20316;-84
2022/04/14 09:02:47;;;;;;;5.47;2.67;;;;;;;21.63;32.18;97850.75;6157276;28;20230;-84
2022/04/14 09:05:49;;;;;;;3.70;3.00;;;;;;;21.44;30.91;97854.03;6169728;28;20606;-83
2022/04/14 09:08:51;;;;;;;6.03;2.50;;;;;;;21.62;30.35;97856.31;6173082;28;20248;-83
2022/04/14 09:11:54;;;;;;;4.73;2.70;;;;;;;21.89;31.83;97863.63;6181490;28;20240;-84
2022/04/14 09:14:57;;;;;;;2.43;2.23;;;;;;;22.38;30.38;97855.69;6180250;28;20748;-83
2022/04/14 09:17:59;;;;;;;3.30;2.10;;;;;;;22.55;30.84;97852.72;6180231;28;20741;-83
2022/04/14 09:21:06;;;;;;;4.57;2.67;;;;;;;22.49;30.69;97854.31;6180351;28;20251;-84
2022/04/14 09:24:08;;;;;;;4.47;2.70;;;;;;;22.74;30.41;97852.88;6181682;28;20232;-84
2022/04/14 09:27:29;;;;;;;3.30;2.57;;;;;;;23.21;29.85;97842.44;6179719;28;20275;-83
2022/04/14 09:30:31;;;;;;;4.27;2.57;;;;;;;23.04;27.80;97840.06;6165083;28;20232;-84
2022/04/14 09:33:35;;;;;;;4.97;2.60;;;;;;;23.31;29.06;97837.50;6180261;28;20232;-83
2022/04/14 09:36:38;;;;;;;3.07;2.50;;;;;;;22.88;28.09;97840.38;6195284;28;20232;-83
2022/04/14 09:40:00;;;;;;;2.90;2.07;;;;;;;22.96;27.99;97829.44;6187901;28;20577;-84
2022/04/14 09:43:04;;;;;;;3.73;2.63;;;;;;;22.49;28.38;97824.72;6182417;28;20233;-84
2022/04/14 09:46:18;;;;;;;7.17;2.80;;;;;;;22.14;28.64;97823.00;6185499;28;20741;-83
2022/04/14 09:49:23;;;;;;;4.13;2.87;;;;;;;22.36;29.52;97825.44;6163052;28;20237;-84
2022/04/14 09:52:25;;;;;;;5.10;2.90;;;;;;;22.92;28.44;97840.81;6179854;28;20233;-83
2022/04/14 09:56:00;;;;;;;3.57;2.50;;;;;;;22.42;29.05;97829.22;6129213;28;20263;-83
2022/04/14 09:59:07;;;;;;;5.47;2.40;;;;;;;23.17;29.34;97820.44;6129797;28;20325;-83
2022/04/14 10:02:13;;;;;;;3.10;2.13;;;;;;;23.65;27.73;97812.41;6130323;28;20238;-83
2022/04/14 10:05:34;;;;;;;3.20;2.27;;;;;;;23.98;28.12;97813.31;6129666;28;20298;-83
2022/04/14 10:08:51;;;;;;;5.80;2.50;;;;;;;24.22;27.33;97814.63;6129373;28;20242;-83
2022/04/14 10:11:54;;;;;;;3.20;2.50;;;;;;;24.72;26.95;97812.34;6129328;28;20325;-83
2022/04/14 10:14:56;;;;;;;2.90;2.40;;;;;;;24.93;26.47;97806.72;6129336;28;20234;-84
2022/04/14 10:18:03;;;;;;;4.10;2.70;;;;;;;25.05;26.53;97812.31;6129470;28;20246;-83
2022/04/14 10:21:06;;;;;;;3.80;2.67;;;;;;;25.24;26.05;97798.75;6096461;28;20241;-84
2022/04/14 10:24:09;;;;;;;4.78;2.50;;;;;;;25.32;25.76;97795.81;6129926;28;20222;-83
2022/04/14 10:27:17;;;;;;;4.40;2.50;;;;;;;25.40;25.60;97796.59;6167466;28;20229;-83
2022/04/14 10:30:20;;;;;;;4.78;2.88;;;;;;;25.23;26.25;97799.78;6163391;28;20213;-83
2022/04/14 10:33:24;;;;;;;8.63;2.63;;;;;;;25.63;26.29;97797.78;6178432;28;20705;-84
2022/04/14 10:36:26;;;;;;;3.45;2.47;;;;;;;25.49;25.22;97798.84;6188188;28;20233;-84
2022/04/14 10:39:31;;;;;;;5.65;2.70;;;;;;;25.81;24.42;97793.53;6178937;28;20224;-83
2022/04/14 10:42:34;;;;;;;2.85;1.95;;;;;;;25.98;25.30;97790.06;6163551;28;20229;-84
2022/04/14 10:45:53;;;;;;;6.05;2.75;;;;;;;25.65;24.98;97789.47;6162964;28;20228;-84
2022/04/14 10:49:10;;;;;;;3.55;2.30;;;;;;;25.80;27.51;97789.16;6179458;28;20229;-83
2022/04/14 10:52:24;;;;;;;3.53;2.90;;;;;;;25.55;24.37;97786.38;6162320;28;20236;-83
2022/04/14 10:55:42;;;;;;;4.53;2.53;;;;;;;25.09;25.16;97787.34;6178101;28;20606;-84
2022/04/14 10:58:54;;;;;;;2.80;2.20;;;;;;;25.78;25.05;97793.94;6164800;28;20241;-84
2022/04/14 11:01:58;;;;;;;4.15;2.75;;;;;;;25.70;25.38;97786.94;6177821;28;20241;-83
2022/04/14 11:05:00;;;;;;;4.95;2.47;;;;;;;25.89;26.12;97794.09;6179595;28;20229;-83
2022/04/14 11:08:22;;;;;;;4.13;2.67;;;;;;;25.81;24.69;97783.53;6177455;28;20225;-83
2022/04/14 11:11:24;;;;;;;6.25;2.95;;;;;;;25.59;25.20;97784.88;6163297;28;20236;-84
2022/04/14 11:14:26;;;;;;;3.17;2.40;;;;;;;26.08;26.02;97786.88;6179620;28;20225;-83
2022/04/14 11:17:38;;;;;;;8.05;2.70;;;;;;;25.96;25.15;97775.94;6177772;28;20225;-84
2022/04/14 11:20:44;;;;;;;3.22;2.55;;;;;;;25.79;24.66;97774.81;6177558;28;20613;-83
2022/04/14 11:23:53;;;;;;;3.17;2.60;;;;;;;25.93;24.70;97772.84;6161781;28;20244;-83
2022/04/14 11:27:15;;;;;;;4.90;2.67;;;;;;;26.44;24.08;97781.66;6179527;28;20248;-84
2022/04/14 11:30:39;;;;;;;4.50;2.78;;;;;;;26.39;24.99;97777.94;6161690;28;20697;-84
2022/04/14 11:33:46;;;;;;;2.92;2.00;;;;;;;26.60;24.50;97779.44;6184136;28;20272;-83
2022/04/14 11:36:50;;;;;;;3.90;2.20;;;;;;;26.32;24.60;97777.19;6198806;28;20248;-83
2022/04/14 11:40:21;;;;;;;3.42;2.45;;;;;;;26.40;24.15;97774.19;6177053;28;20650;-83
2022/04/14 11:43:23;;;;;;;2.97;2.60;;;;;;;26.35;25.01;97772.13;6182826;28;20249;-83
2022/04/14 11:46:52;;;;;;;4.13;2.50;;;;;;;26.00;24.54;97755.53;6163500;28;20369;-84
2022/04/14 11:49:54;;;;;;;3.38;2.40;;;;;;;26.66;23.56;97756.84;6182209;28;20244;-83
2022/04/14 11:52:57;;;;;;;5.07;2.45;;;;;;;26.83;23.70;97757.97;6166778;28;20229;-84
2022/04/14 11:56:00;;;;;;;3.35;2.22;;;;;;;27.03;23.50;97758.59;6173994;28;20704;-83
2022/04/14 11:59:08;;;;;;;3.90;2.33;;;;;;;27.40;22.80;97759.41;6182373;28;20233;-84
2022/04/14 12:02:14;;;;;;;3.25;2.40;;;;;;;25.98;23.74;97762.19;6166284;28;20229;-84
2022/04/14 12:05:19;;;;;;;4.63;2.60;;;;;;;26.04;25.15;97750.53;6168303;28;20229;-83
2022/04/14 12:08:21;;;;;;;4.45;2.40;;;;;;;26.64;23.84;97750.88;6185669;28;20276;-84
2022/04/14 12:11:29;;;;;;;3.33;2.10;;;;;;;27.06;23.52;97749.16;6170959;28;20229;-84
2022/04/14 12:14:31;;;;;;;4.18;2.67;;;;;;;26.76;22.87;97746.34;6166257;28;20775;-83
2022/04/14 12:17:37;;;;;;;2.83;2.35;;;;;;;26.43;23.31;97742.09;6180760;28;20693;-85
2022/04/14 12:20:43;;;;;;;2.88;2.53;;;;;;;26.84;24.05;97735.25;6166294;28;20626;-83
2022/04/14 12:23:47;;;;;;;3.10;2.20;;;;;;;27.36;23.48;97739.22;6181831;28;20236;-83
2022/04/14 12:26:50;;;;;;;3.25;2.63;;;;;;;28.03;22.75;97737.25;6181434;28;20236;-84
2022/04/14 12:29:56;;;;;;;4.40;2.15;;;;;;;28.06;22.84;97741.38;6181496;28;20603;-84
2022/04/14 12:33:07;;;;;;;4.95;2.45;;;;;;;26.72;23.18;97735.16;6165972;28;20237;-83
2022/04/14 12:36:10;;;;;;;2.63;1.95;;;;;;;26.49;23.31;97731.41;6174883;28;20231;-83
2022/04/14 12:39:20;;;;;;;2.90;2.13;;;;;;;27.54;23.16;97730.22;6185984;28;20217;-83
2022/04/14 12:42:32;;;;;;;3.00;2.17;;;;;;;27.65;22.29;97721.31;6165193;28;20226;-84
2022/04/14 12:45:38;;;;;;;3.05;2.38;;;;;;;27.79;22.57;97717.38;6180511;28;20225;-84
2022/04/14 12:48:40;;;;;;;3.83;2.33;;;;;;;27.99;22.61;97718.94;6165958;28;20244;-84
2022/04/14 12:51:50;;;;;;;4.57;2.28;;;;;;;28.35;22.55;97716.06;6164841;28;20712;-84
2022/04/14 12:54:54;;;;;;;3.25;2.05;;;;;;;28.11;22.81;97719.78;6164834;28;20222;-84
2022/04/14 12:58:13;;;;;;;7.60;2.55;;;;;;;27.03;22.67;97709.00;6165253;28;20217;-83
2022/04/14 13:01:16;;;;;;;4.15;2.33;;;;;;;27.76;23.47;97704.25;6158556;28;20222;-84
2022/04/14 13:04:32;;;;;;;4.47;2.20;;;;;;;28.32;22.67;97699.44;6180782;28;20229;-84
2022/04/14 13:07:46;;;;;;;3.42;2.22;;;;;;;27.96;22.17;97698.53;6181552;28;20233;-83
2022/04/14 13:10:48;;;;;;;3.30;2.53;;;;;;;27.12;22.55;97694.91;6181881;28;20237;-84
2022/04/14 13:13:50;;;;;;;3.78;2.25;;;;;;;27.51;22.64;97692.72;6180368;28;20610;-84
2022/04/14 13:16:54;;;;;;;2.75;1.92;;;;;;;28.05;21.70;97693.59;6181065;28;20228;-84
2022/04/14 13:19:57;;;;;;;5.03;2.58;;;;;;;28.37;21.27;97686.78;6180677;28;20595;-83
2022/04/14 13:22:59;;;;;;;4.38;2.35;;;;;;;28.57;21.30;97686.44;6181850;28;20601;-84
2022/04/14 13:26:01;;;;;;;3.35;2.30;;;;;;;28.98;20.78;97688.16;6180790;28;20232;-84
2022/04/14 13:29:04;;;;;;;2.38;2.17;;;;;;;29.73;20.79;97690.75;6181690;28;20591;-84
2022/04/14 13:32:07;;;;;;;3.10;2.20;;;;;;;29.50;20.36;97682.69;6184890;28;20728;-84
2022/04/14 13:35:09;;;;;;;3.53;2.35;;;;;;;29.21;20.78;97681.84;6189823;28;20723;-83
2022/04/14 13:38:13;;;;;;;3.15;1.92;;;;;;;31.30;19.09;97670.50;6174496;28;20233;-84
2022/04/14 13:41:15;;;;;;;2.80;2.30;;;;;;;32.58;17.29;97671.38;6169503;28;20230;-84
2022/04/14 13:44:17;;;;;;;2.63;2.08;;;;;;;34.42;15.83;97671.66;6158953;28;20320;-83
2022/04/14 13:47:19;;;;;;;4.18;2.42;;;;;;;34.43;15.64;97674.13;6177147;28;20244;-84
2022/04/14 13:50:21;;;;;;;3.88;2.03;;;;;;;34.32;15.29;97679.88;6183298;28;20320;-84
2022/04/14 13:53:24;;;;;;;4.65;2.50;;;;;;;34.73;15.10;97678.72;6166084;28;20241;-84
2022/04/14 13:56:26;;;;;;;3.17;2.15;;;;;;;34.63;15.42;97670.50;6182228;28;20296;-83
2022/04/14 13:59:29;;;;;;;2.35;2.08;;;;;;;34.93;14.45;97671.53;6180781;28;20226;-84
2022/04/14 14:02:31;;;;;;;2.95;1.85;;;;;;;34.53;15.13;97666.97;6155918;28;20229;-83
2022/04/14 14:05:33;;;;;;;3.55;2.10;;;;;;;34.16;14.69;97667.25;6169666;28;20229;-83
2022/04/14 14:08:36;;;;;;;3.17;2.35;;;;;;;33.98;15.24;97665.88;6148068;28;20230;-84
2022/04/14 14:11:38;;;;;;;3.55;1.95;;;;;;;35.15;15.26;97650.84;6162113;28;20261;-84
2022/04/14 14:14:40;;;;;;;2.78;2.15;;;;;;;35.42;14.11;97658.72;6158404;28;20710;-83
2022/04/14 14:17:42;;;;;;;3.85;2.30;;;;;;;36.72;13.53;97665.41;6157575;28;20733;-84
2022/04/14 14:20:46;;;;;;;4.00;1.95;;;;;;;36.15;13.12;97656.00;6159860;28;20221;-84
2022/04/14 14:23:50;;;;;;;3.78;2.33;;;;;;;36.42;13.53;97654.69;6179861;28;20708;-84
2022/04/14 14:26:52;;;;;;;3.67;2.60;;;;;;;35.83;13.60;97650.25;6178890;28;20710;-84
2022/04/14 14:29:54;;;;;;;3.75;2.20;;;;;;;37.12;12.60;97646.75;6179443;28;20728;-84
2022/04/14 14:32:56;;;;;;;4.18;2.17;;;;;;;36.88;12.74;97644.84;6163986;28;20731;-83
2022/04/14 14:35:59;;;;;;;2.70;1.77;;;;;;;36.76;12.79;97651.88;6169746;28;20224;-84
2022/04/14 14:39:01;;;;;;;3.67;2.05;;;;;;;35.92;13.52;97645.78;6174139;28;20333;-83
2022/04/14 14:42:04;;;;;;;2.80;2.00;;;;;;;35.62;13.69;97652.28;6139121;28;20229;-84
2022/04/14 14:45:07;;;;;;;2.83;1.90;;;;;;;35.58;13.70;97640.22;6178116;28;20446;-84
2022/04/14 14:48:09;;;;;;;3.70;2.13;;;;;;;36.38;13.34;97646.19;6179964;28;20721;-83
2022/04/14 14:51:11;;;;;;;3.50;2.10;;;;;;;38.25;11.80;97655.84;6177596;28;20714;-83
2022/04/14 14:54:16;;;;;;;6.15;2.40;;;;;;;38.39;12.13;97654.78;6175855;28;20244;-84
2022/04/14 14:57:19;;;;;;;3.13;2.25;;;;;;;37.72;12.22;97644.31;6179437;28;20570;-83
2022/04/14 15:00:21;;;;;;;2.00;1.80;;;;;;;37.87;12.07;97653.16;6178785;28;20233;-84
2022/04/14 15:03:23;;;;;;;4.22;1.88;;;;;;;38.81;11.79;97649.34;6163999;28;20701;-84
2022/04/14 15:06:25;;;;;;;7.68;2.45;;;;;;;38.75;11.69;97651.34;6181267;28;20712;-84
2022/04/14 15:09:27;;;;;;;3.92;1.90;;;;;;;38.99;11.78;97645.69;6180149;28;20344;-83
2022/04/14 15:12:32;;;;;;;4.28;2.08;;;;;;;39.36;11.38;97655.63;6179560;28;20255;-84
2022/04/14 15:15:35;;;;;;;3.72;2.15;;;;;;;38.59;11.34;97653.59;6179746;28;20236;-84
2022/04/14 15:18:37;;;;;;;4.15;2.47;;;;;;;36.14;13.31;97651.59;6161780;28;20607;-84
2022/04/14 15:21:39;;;;;;;6.10;2.03;;;;;;;36.34;13.24;97652.56;6176357;28;20240;-84
2022/04/14 15:24:41;;;;;;;3.25;2.10;;;;;;;35.68;13.74;97647.56;6178050;28;20605;-84
2022/04/14 15:27:43;;;;;;;3.25;2.17;;;;;;;34.82;14.31;97645.25;6176942;28;20606;-83
2022/04/14 15:30:46;;;;;;;4.28;2.30;;;;;;;33.60;14.77;97650.75;6178928;28;20252;-83